Theriot, Louisiana
Current Conditions -  °F | °C
As of 11:47 AM on Friday 24 Oct 2014 (Local Time) from KHUM Reporting Station
Clear Clear  
Wind Chill: 72°   Ceiling: Unl
Heat Index: 72°   Visibility: 7mi
Dew Point: 50°   Wind: 6mph
Humidity: 46%   Direction: 10°N
Pressure: 30.1"   Gusts: NA
Location:  29.46°N, 90.75°W
Report Text: KHUM 241647Z 01005KT 7SM SKC 22/10 A3010 RMK ATIS CHARLIE VA RY36 MS
Loading
Personal Weather Stations






























Interactive Weather Map
Tropical Storm Tracking
New forecast layout! Learn more

10-Day Weather Forecast

Advertisements
Track Severe Weather on mobile